createdAt,value
2023-02-08T00:00:39.000Z,1038.21
2023-02-08T00:02:36.123Z,1038.08
2023-02-08T00:04:35.554Z,1038.08
2023-02-08T00:06:35.905Z,1038.05
2023-02-08T00:08:35.587Z,1038.05
2023-02-08T00:10:36.252Z,1037.98
2023-02-08T00:12:35.599Z,1037.98
2023-02-08T00:14:35.242Z,1038.06
2023-02-08T00:16:36.138Z,1038.06
2023-02-08T00:18:35.551Z,1037.87
2023-02-08T00:20:35.248Z,1037.87
2023-02-08T00:22:35.777Z,1037.86
2023-02-08T00:24:35.345Z,1037.86
2023-02-08T00:26:35.744Z,1037.71
2023-02-08T00:28:38.392Z,1037.71
2023-02-08T00:30:35.783Z,1037.89
2023-02-08T00:32:35.326Z,1037.89
2023-02-08T00:34:35.679Z,1038.03
2023-02-08T00:36:35.167Z,1038.03
2023-02-08T00:38:35.834Z,1037.84
2023-02-08T00:40:35.394Z,1037.84
2023-02-08T00:42:35.755Z,1037.89
2023-02-08T00:44:35.235Z,1037.9
2023-02-08T00:46:36.151Z,1037.9
2023-02-08T00:48:35.409Z,1037.83
2023-02-08T00:50:35.896Z,1037.83
2023-02-08T00:52:35.320Z,1037.91
2023-02-08T00:54:35.890Z,1037.91
2023-02-08T00:56:35.293Z,1037.9
2023-02-08T00:58:35.646Z,1037.9
2023-02-08T01:00:38.789Z,1037.94
2023-02-08T01:02:35.678Z,1037.94
2023-02-08T01:04:35.719Z,1037.94
2023-02-08T01:06:35.172Z,1037.94
2023-02-08T01:08:35.551Z,1038.05
2023-02-08T01:10:35.226Z,1038.05
2023-02-08T01:12:35.729Z,1037.99
2023-02-08T01:14:35.315Z,1037.99
2023-02-08T01:16:36.245Z,1038.02
2023-02-08T01:18:35.535Z,1038.02
2023-02-08T01:20:36.034Z,1037.97
2023-02-08T01:22:35.603Z,1037.97
2023-02-08T01:24:35.315Z,1037.94
2023-02-08T01:26:35.817Z,1037.94
2023-02-08T01:28:35.601Z,1037.89
2023-02-08T01:30:36.124Z,1037.89
2023-02-08T01:32:35.647Z,1037.88
2023-02-08T01:34:35.196Z,1037.88
2023-02-08T01:36:35.351Z,1037.81
2023-02-08T01:38:35.938Z,1037.81
2023-02-08T01:40:35.416Z,1037.84
2023-02-08T01:42:35.751Z,1037.84
2023-02-08T01:44:35.255Z,1037.72
2023-02-08T01:46:35.767Z,1037.72
2023-02-08T01:48:35.214Z,1037.61
2023-02-08T01:50:35.866Z,1037.61
2023-02-08T01:52:35.203Z,1037.63
2023-02-08T01:54:35.797Z,1037.63
2023-02-08T01:56:35.215Z,1037.72
2023-02-08T01:58:35.785Z,1037.72
2023-02-08T02:00:36.720Z,1037.65
2023-02-08T02:02:35.520Z,1037.65
2023-02-08T02:04:36.127Z,1037.68
2023-02-08T02:06:35.361Z,1037.68
2023-02-08T02:08:36.165Z,1037.67
2023-02-08T02:10:35.479Z,1037.67
2023-02-08T02:12:35.843Z,1037.6
2023-02-08T02:14:35.305Z,1037.6
2023-02-08T02:16:35.944Z,1037.58
2023-02-08T02:18:35.263Z,1037.58
2023-02-08T02:20:37.911Z,1037.57
2023-02-08T02:22:35.461Z,1037.57
2023-02-08T02:24:35.108Z,1037.55
2023-02-08T02:26:35.552Z,1037.55
2023-02-08T02:28:35.545Z,1037.54
2023-02-08T02:30:35.895Z,1037.54
2023-02-08T02:32:35.534Z,1037.55
2023-02-08T02:34:36.086Z,1037.55
2023-02-08T02:36:35.460Z,1037.54
2023-02-08T02:38:35.955Z,1037.54
2023-02-08T02:40:35.398Z,1037.51
2023-02-08T02:42:35.900Z,1037.51
2023-02-08T02:44:35.321Z,1037.64
2023-02-08T02:46:36.077Z,1037.64
2023-02-08T02:48:35.495Z,1037.43
2023-02-08T02:50:36.180Z,1037.43
2023-02-08T02:52:35.493Z,1037.54
2023-02-08T02:54:36.015Z,1037.54
2023-02-08T02:56:35.397Z,1037.45
2023-02-08T02:58:35.957Z,1037.45
2023-02-08T03:00:38.585Z,1037.48
2023-02-08T03:02:35.139Z,1037.48
2023-02-08T03:04:35.895Z,1037.32
2023-02-08T03:06:35.177Z,1037.32
2023-02-08T03:08:35.792Z,1037.34
2023-02-08T03:10:35.459Z,1037.34
2023-02-08T03:12:35.967Z,1037.33
2023-02-08T03:14:35.435Z,1037.33
2023-02-08T03:16:36.113Z,1037.41
2023-02-08T03:18:35.459Z,1037.41
2023-02-08T03:20:35.910Z,1037.37
2023-02-08T03:22:35.341Z,1037.37
2023-02-08T03:24:35.986Z,1037.35
2023-02-08T03:26:35.388Z,1037.35
2023-02-08T03:28:35.865Z,1037.39
2023-02-08T03:30:35.566Z,1037.39
2023-02-08T03:32:36.126Z,1037.4
2023-02-08T03:34:35.491Z,1037.4
2023-02-08T03:36:35.957Z,1037.14
2023-02-08T03:38:35.533Z,1037.14
2023-02-08T03:40:35.984Z,1037.17
2023-02-08T03:42:35.383Z,1037.17
2023-02-08T03:44:36.076Z,1037.2
2023-02-08T03:46:35.754Z,1037.2
2023-02-08T03:48:35.135Z,1037.12
2023-02-08T03:50:35.571Z,1037.12
2023-02-08T03:52:35.089Z,1037.24
2023-02-08T03:54:35.803Z,1037.24
2023-02-08T03:56:35.169Z,1037.2
2023-02-08T03:58:35.602Z,1037.2
2023-02-08T04:00:39.480Z,1037.19
2023-02-08T04:02:35.409Z,1037.19
2023-02-08T04:04:35.751Z,1037.2
2023-02-08T04:06:35.155Z,1037.16
2023-02-08T04:08:35.741Z,1037.16
2023-02-08T04:10:35.404Z,1037.25
2023-02-08T04:12:35.734Z,1037.25
2023-02-08T04:14:35.249Z,1037.16
2023-02-08T04:16:35.790Z,1037.16
2023-02-08T04:18:35.302Z,1037.19
2023-02-08T04:20:35.671Z,1037.19
2023-02-08T04:22:35.232Z,1037.1
2023-02-08T04:24:35.824Z,1037.1
2023-02-08T04:26:35.293Z,1037.22
2023-02-08T04:28:35.992Z,1037.22
2023-02-08T04:30:35.505Z,1037.11
2023-02-08T04:32:35.925Z,1037.11
2023-02-08T04:34:35.475Z,1037.07
2023-02-08T04:36:35.797Z,1037.07
2023-02-08T04:38:35.398Z,1037.07
2023-02-08T04:40:35.868Z,1037.07
2023-02-08T04:42:37.356Z,1037.09
2023-02-08T04:44:36.032Z,1037.09
2023-02-08T04:46:35.656Z,1037.01
2023-02-08T04:48:36.018Z,1037.01
2023-02-08T04:50:35.547Z,1036.88
2023-02-08T04:52:35.189Z,1036.88
2023-02-08T04:54:36.142Z,1036.89
2023-02-08T04:56:35.315Z,1036.89
2023-02-08T04:58:35.917Z,1036.9
2023-02-08T05:00:38.496Z,1036.9
2023-02-08T05:02:35.797Z,1036.68
2023-02-08T05:04:35.342Z,1036.68
2023-02-08T05:06:35.663Z,1036.88
2023-02-08T05:08:35.386Z,1036.88
2023-02-08T05:10:35.949Z,1036.88
2023-02-08T05:12:35.290Z,1036.88
2023-02-08T05:14:35.947Z,1036.95
2023-02-08T05:16:35.688Z,1036.95
2023-02-08T05:18:36.068Z,1036.86
2023-02-08T05:20:35.555Z,1036.86
2023-02-08T05:22:35.139Z,1037
2023-02-08T05:24:35.737Z,1037
2023-02-08T05:26:35.287Z,1036.82
2023-02-08T05:28:35.901Z,1036.82
2023-02-08T05:30:35.361Z,1036.91
2023-02-08T05:32:35.975Z,1036.91
2023-02-08T05:34:35.301Z,1036.92
2023-02-08T05:36:38.729Z,1036.92
2023-02-08T05:38:35.168Z,1036.74
2023-02-08T05:40:35.959Z,1036.74
2023-02-08T05:42:35.311Z,1036.8
2023-02-08T05:44:35.657Z,1036.8
2023-02-08T05:46:38.010Z,1036.81
2023-02-08T05:48:35.596Z,1036.81
2023-02-08T05:50:35.256Z,1036.8
2023-02-08T05:52:35.917Z,1036.8
2023-02-08T05:54:35.378Z,1036.63
2023-02-08T05:56:35.854Z,1036.63
2023-02-08T05:58:35.575Z,1036.77
2023-02-08T06:00:35.276Z,1036.77
2023-02-08T06:02:35.471Z,1036.7
2023-02-08T06:04:38.721Z,1036.7
2023-02-08T06:06:35.562Z,1036.71
2023-02-08T06:08:35.836Z,1036.71
2023-02-08T06:10:35.491Z,1036.79
2023-02-08T06:12:35.829Z,1036.79
2023-02-08T06:14:35.363Z,1036.79
2023-02-08T06:16:36.254Z,1036.79
2023-02-08T06:18:35.346Z,1036.82
2023-02-08T06:20:35.944Z,1036.82
2023-02-08T06:22:35.495Z,1036.8
2023-02-08T06:24:35.902Z,1036.8
2023-02-08T06:26:35.372Z,1036.79
2023-02-08T06:28:35.997Z,1036.79
2023-02-08T06:30:35.480Z,1036.91
2023-02-08T06:32:36.357Z,1036.91
2023-02-08T06:34:35.332Z,1036.83
2023-02-08T06:36:35.741Z,1036.83
2023-02-08T06:38:35.413Z,1036.67
2023-02-08T06:40:35.975Z,1036.67
2023-02-08T06:42:35.313Z,1036.66
2023-02-08T06:44:35.991Z,1036.66
2023-02-08T06:46:35.500Z,1036.71
2023-02-08T06:48:35.860Z,1036.71
2023-02-08T06:50:35.561Z,1036.59
2023-02-08T06:52:35.258Z,1036.59
2023-02-08T06:54:35.777Z,1036.71
2023-02-08T06:56:35.133Z,1036.71
2023-02-08T06:58:35.582Z,1036.67
2023-02-08T07:00:40.983Z,1036.67
2023-02-08T07:02:35.702Z,1036.79
2023-02-08T07:04:35.911Z,1036.79
2023-02-08T07:06:39.385Z,1036.62
2023-02-08T07:08:35.932Z,1036.62
2023-02-08T07:10:35.267Z,1036.72
2023-02-08T07:12:35.667Z,1036.72
2023-02-08T07:14:35.403Z,1036.6
2023-02-08T07:16:36.087Z,1036.6
2023-02-08T07:18:35.228Z,1036.52
2023-02-08T07:20:36.027Z,1036.52
2023-02-08T07:22:35.496Z,1036.56
2023-02-08T07:24:35.984Z,1036.56
2023-02-08T07:26:35.392Z,1036.5
2023-02-08T07:28:36.928Z,1036.64
2023-02-08T07:30:35.762Z,1036.64
2023-02-08T07:32:36.192Z,1036.63
2023-02-08T07:34:35.328Z,1036.63
2023-02-08T07:36:35.808Z,1036.56
2023-02-08T07:38:35.377Z,1036.56
2023-02-08T07:40:35.774Z,1036.62
2023-02-08T07:42:35.421Z,1036.62
2023-02-08T07:44:35.960Z,1036.56
2023-02-08T07:46:35.616Z,1036.56
2023-02-08T07:48:35.848Z,1036.57
2023-02-08T07:50:35.538Z,1036.57
2023-02-08T07:52:35.992Z,1036.59
2023-02-08T07:54:35.383Z,1036.59
2023-02-08T07:56:35.855Z,1036.48
2023-02-08T07:58:35.332Z,1036.48
2023-02-08T08:00:41.162Z,1036.49
2023-02-08T08:02:35.915Z,1036.49
2023-02-08T08:04:35.555Z,1036.52
2023-02-08T08:06:35.958Z,1036.52
2023-02-08T08:08:35.376Z,1036.64
2023-02-08T08:10:36.016Z,1036.64
2023-02-08T08:12:35.443Z,1036.66
2023-02-08T08:14:35.956Z,1036.66
2023-02-08T08:16:36.002Z,1036.56
2023-02-08T08:18:36.057Z,1036.56
2023-02-08T08:20:35.407Z,1036.65
2023-02-08T08:22:35.782Z,1036.65
2023-02-08T08:24:35.257Z,1036.73
2023-02-08T08:26:35.746Z,1036.73
2023-02-08T08:28:35.752Z,1036.6
2023-02-08T08:30:36.104Z,1036.6
2023-02-08T08:32:35.290Z,1036.6
2023-02-08T08:34:35.736Z,1036.6
2023-02-08T08:36:35.416Z,1036.31
2023-02-08T08:38:35.708Z,1036.31
2023-02-08T08:40:36.585Z,1036.41
2023-02-08T08:42:35.604Z,1036.41
2023-02-08T08:44:35.156Z,1036.35
2023-02-08T08:46:36.210Z,1036.35
2023-02-08T08:48:35.323Z,1036.39
2023-02-08T08:50:35.768Z,1036.39
2023-02-08T08:52:35.369Z,1036.34
2023-02-08T08:54:35.797Z,1036.34
2023-02-08T08:56:35.250Z,1036.43
2023-02-08T08:58:35.840Z,1036.43
2023-02-08T09:00:38.959Z,1036.34
2023-02-08T09:02:35.637Z,1036.34
2023-02-08T09:04:36.018Z,1036.33
2023-02-08T09:06:35.576Z,1036.33
2023-02-08T09:08:35.096Z,1036.26
2023-02-08T09:10:35.764Z,1036.26
2023-02-08T09:12:35.537Z,1036.39
2023-02-08T09:14:38.340Z,1036.39
2023-02-08T09:16:35.473Z,1036.54
2023-02-08T09:18:35.782Z,1036.54
2023-02-08T09:20:38.430Z,1036.5
2023-02-08T09:22:35.932Z,1036.5
2023-02-08T09:24:35.177Z,1036.49
2023-02-08T09:26:35.804Z,1036.49
2023-02-08T09:28:35.608Z,1036.49
2023-02-08T09:30:36.002Z,1036.49
2023-02-08T09:32:35.467Z,1036.54
2023-02-08T09:34:35.881Z,1036.54
2023-02-08T09:36:35.388Z,1036.47
2023-02-08T09:38:35.965Z,1036.47
2023-02-08T09:40:35.496Z,1036.57
2023-02-08T09:42:35.868Z,1036.57
2023-02-08T09:44:35.308Z,1036.49
2023-02-08T09:46:35.748Z,1036.49
2023-02-08T09:48:35.218Z,1036.47
2023-02-08T09:50:35.838Z,1036.47
2023-02-08T09:52:35.309Z,1036.44
2023-02-08T09:54:35.783Z,1036.44
2023-02-08T09:56:35.937Z,1036.48
2023-02-08T09:58:35.771Z,1036.48
2023-02-08T10:00:35.528Z,1036.52
2023-02-08T10:02:35.126Z,1036.52
2023-02-08T10:04:35.673Z,1036.57
2023-02-08T10:06:35.286Z,1036.57
2023-02-08T10:08:46.356Z,1036.6
2023-02-08T10:10:35.329Z,1036.6
2023-02-08T10:12:35.749Z,1036.7
2023-02-08T10:14:35.296Z,1036.7
2023-02-08T10:16:35.891Z,1036.79
2023-02-08T10:18:35.624Z,1036.79
2023-02-08T10:20:35.964Z,1036.82
2023-02-08T10:22:35.358Z,1036.82
2023-02-08T10:24:35.668Z,1036.71
2023-02-08T10:26:36.106Z,1036.71
2023-02-08T10:28:35.664Z,1036.72
2023-02-08T10:30:35.835Z,1036.72
2023-02-08T10:32:35.388Z,1036.6
2023-02-08T10:34:35.673Z,1036.6
2023-02-08T10:36:36.143Z,1036.77
2023-02-08T10:38:45.789Z,1036.77
2023-02-08T10:40:35.896Z,1036.74
2023-02-08T10:42:35.437Z,1036.74
2023-02-08T10:44:35.981Z,1036.78
2023-02-08T10:46:35.510Z,1036.78
2023-02-08T10:48:36.071Z,1036.59
2023-02-08T10:50:35.567Z,1036.59
2023-02-08T10:52:36.192Z,1036.62
2023-02-08T10:54:35.516Z,1036.53
2023-02-08T10:56:35.985Z,1036.53
2023-02-08T10:58:35.294Z,1036.51
2023-02-08T11:00:39.410Z,1036.51
2023-02-08T11:02:35.184Z,1036.49
2023-02-08T11:04:35.892Z,1036.49
2023-02-08T11:06:36.069Z,1036.41
2023-02-08T11:08:35.614Z,1036.41
2023-02-08T11:10:36.125Z,1036.29
2023-02-08T11:12:35.435Z,1036.29
2023-02-08T11:14:47.221Z,1036.24
2023-02-08T11:16:35.803Z,1036.24
2023-02-08T11:18:36.049Z,1036.09
2023-02-08T11:20:35.477Z,1036.09
2023-02-08T11:22:36.001Z,1036.1
2023-02-08T11:24:35.358Z,1036.1
2023-02-08T11:26:35.891Z,1036.07
2023-02-08T11:28:35.553Z,1036.07
2023-02-08T11:30:36.070Z,1036.05
2023-02-08T11:32:35.620Z,1036.05
2023-02-08T11:34:36.104Z,1036.01
2023-02-08T11:36:35.311Z,1036.01
2023-02-08T11:38:35.684Z,1035.88
2023-02-08T11:40:35.407Z,1035.88
2023-02-08T11:42:35.857Z,1035.94
2023-02-08T11:44:35.400Z,1035.94
2023-02-08T11:46:36.224Z,1035.87
2023-02-08T11:48:35.708Z,1035.87
2023-02-08T11:50:36.096Z,1035.7
2023-02-08T11:52:35.315Z,1035.7
2023-02-08T11:54:35.999Z,1035.75
2023-02-08T11:56:35.391Z,1035.75
2023-02-08T11:58:35.802Z,1035.73
2023-02-08T12:00:39.484Z,1035.73
2023-02-08T12:02:35.640Z,1035.69
2023-02-08T12:04:35.977Z,1035.69
2023-02-08T12:06:35.694Z,1035.59
2023-02-08T12:08:35.845Z,1035.59
2023-02-08T12:10:35.552Z,1035.44
2023-02-08T12:12:35.882Z,1035.44
2023-02-08T12:14:35.466Z,1035.39
2023-02-08T12:16:36.482Z,1035.39
2023-02-08T12:18:35.220Z,1035.43
2023-02-08T12:20:36.076Z,1035.43
2023-02-08T12:22:35.431Z,1035.29
2023-02-08T12:24:35.888Z,1035.29
2023-02-08T12:26:35.496Z,1035.2
2023-02-08T12:28:35.915Z,1035.2
2023-02-08T12:30:35.294Z,1035.29
2023-02-08T12:32:35.657Z,1035.29
2023-02-08T12:34:35.301Z,1035.27
2023-02-08T12:36:39.321Z,1035.27
2023-02-08T12:38:35.983Z,1035.05
2023-02-08T12:40:35.731Z,1035.05
2023-02-08T12:42:36.017Z,1035.12
2023-02-08T12:44:35.367Z,1035.12
2023-02-08T12:46:36.197Z,1035.17
2023-02-08T12:48:38.557Z,1035.17
2023-02-08T12:50:35.715Z,1035.11
2023-02-08T12:52:35.242Z,1035.11
2023-02-08T12:54:35.776Z,1034.98
2023-02-08T12:56:36.047Z,1034.98
2023-02-08T12:58:35.494Z,1035.01
2023-02-08T13:00:38.674Z,1035.01
2023-02-08T13:02:35.379Z,1034.97
2023-02-08T13:04:35.687Z,1034.97
2023-02-08T13:06:36.942Z,1034.86
2023-02-08T13:08:35.495Z,1034.86
2023-02-08T13:10:36.205Z,1034.97
2023-02-08T13:12:35.523Z,1034.97
2023-02-08T13:14:35.796Z,1034.9
2023-02-08T13:16:35.506Z,1034.9
2023-02-08T13:18:35.733Z,1034.84
2023-02-08T13:20:35.240Z,1034.84
2023-02-08T13:22:35.946Z,1034.78
2023-02-08T13:24:35.533Z,1034.78
2023-02-08T13:26:38.286Z,1034.69
2023-02-08T13:28:36.321Z,1034.69
2023-02-08T13:30:38.192Z,1034.75
2023-02-08T13:32:35.592Z,1034.75
2023-02-08T13:34:36.209Z,1034.68
2023-02-08T13:36:35.824Z,1034.68
2023-02-08T13:38:35.217Z,1034.53
2023-02-08T13:40:35.894Z,1034.53
2023-02-08T13:42:35.355Z,1034.53
2023-02-08T13:44:35.840Z,1034.53
2023-02-08T13:46:35.716Z,1034.39
2023-02-08T13:48:35.997Z,1034.39
2023-02-08T13:50:35.371Z,1034.33
2023-02-08T13:52:47.645Z,1034.33
2023-02-08T13:54:35.539Z,1034.28
2023-02-08T13:56:35.123Z,1034.28
2023-02-08T13:58:35.357Z,1034.15
2023-02-08T14:00:38.901Z,1034.15
2023-02-08T14:02:36.106Z,1034.2
2023-02-08T14:04:35.397Z,1034.2
2023-02-08T14:06:35.355Z,1034.15
2023-02-08T14:08:36.016Z,1034.15
2023-02-08T14:10:35.350Z,1034.12
2023-02-08T14:12:35.689Z,1034.12
2023-02-08T14:14:35.343Z,1034.03
2023-02-08T14:16:36.029Z,1033.91
2023-02-08T14:18:35.305Z,1033.91
2023-02-08T14:20:35.709Z,1033.89
2023-02-08T14:22:35.376Z,1033.89
2023-02-08T14:24:35.591Z,1033.95
2023-02-08T14:26:35.081Z,1033.95
2023-02-08T14:28:35.732Z,1033.8
2023-02-08T14:30:35.217Z,1033.8
2023-02-08T14:32:35.649Z,1033.8
2023-02-08T14:34:35.866Z,1033.8
2023-02-08T14:36:35.163Z,1033.73
2023-02-08T14:38:37.584Z,1033.73
2023-02-08T14:40:36.493Z,1033.77
2023-02-08T14:42:35.780Z,1033.77
2023-02-08T14:44:35.383Z,1033.71
2023-02-08T14:46:35.814Z,1033.71
2023-02-08T14:48:35.281Z,1033.55
2023-02-08T14:50:35.654Z,1033.55
2023-02-08T14:52:35.493Z,1033.5
2023-02-08T14:54:35.600Z,1033.5
2023-02-08T14:56:35.168Z,1033.52
2023-02-08T14:58:35.732Z,1033.52
2023-02-08T15:00:38.883Z,1033.36
2023-02-08T15:02:35.657Z,1033.36
2023-02-08T15:04:36.869Z,1033.43
2023-02-08T15:06:35.521Z,1033.43
2023-02-08T15:08:35.917Z,1033.5
2023-02-08T15:10:35.512Z,1033.5
2023-02-08T15:12:35.855Z,1033.38
2023-02-08T15:14:35.504Z,1033.38
2023-02-08T15:16:36.168Z,1033.37
2023-02-08T15:18:35.316Z,1033.37
2023-02-08T15:20:35.968Z,1033.23
2023-02-08T15:22:35.497Z,1033.23
2023-02-08T15:24:39.380Z,1033.15
2023-02-08T15:26:35.042Z,1033.15
2023-02-08T15:28:35.660Z,1033.07
2023-02-08T15:30:36.012Z,1033.07
2023-02-08T15:32:35.513Z,1033.14
2023-02-08T15:34:35.837Z,1033.14
2023-02-08T15:36:35.368Z,1033.12
2023-02-08T15:38:35.699Z,1033.12
2023-02-08T15:40:35.230Z,1033.11
2023-02-08T15:42:35.601Z,1033.11
2023-02-08T15:44:35.288Z,1033.01
2023-02-08T15:46:35.813Z,1033.01
2023-02-08T15:48:35.059Z,1032.99
2023-02-08T15:50:35.702Z,1032.99
2023-02-08T15:52:35.278Z,1033.08
2023-02-08T15:54:35.807Z,1033.08
2023-02-08T15:56:48.281Z,1032.86
2023-02-08T15:58:35.584Z,1032.86
2023-02-08T16:00:39.087Z,1032.94
2023-02-08T16:02:35.310Z,1032.94
2023-02-08T16:04:35.910Z,1032.83
2023-02-08T16:06:35.285Z,1032.83
2023-02-08T16:08:37.968Z,1032.81
2023-02-08T16:10:35.550Z,1032.81
2023-02-08T16:12:35.942Z,1032.81
2023-02-08T16:14:51.827Z,1032.81
2023-02-08T16:16:43.087Z,1032.8
2023-02-08T16:18:35.457Z,1032.8
2023-02-08T16:20:40.078Z,1032.82
2023-02-08T16:22:35.645Z,1032.82
2023-02-08T16:24:36.044Z,1032.76
2023-02-08T16:26:35.439Z,1032.76
2023-02-08T16:28:36.180Z,1032.81
2023-02-08T16:30:35.723Z,1032.81
2023-02-08T16:32:36.522Z,1032.65
2023-02-08T16:34:35.513Z,1032.65
2023-02-08T16:36:35.175Z,1032.65
2023-02-08T16:38:35.790Z,1032.65
2023-02-08T16:40:35.392Z,1032.64
2023-02-08T16:42:51.247Z,1032.64
2023-02-08T16:44:35.608Z,1032.65
2023-02-08T16:46:35.852Z,1032.65
2023-02-08T16:48:52.216Z,1032.67
2023-02-08T16:50:35.930Z,1032.67
2023-02-08T16:52:35.454Z,1032.62
2023-02-08T16:54:37.086Z,1032.62
2023-02-08T16:56:35.537Z,1032.53
2023-02-08T16:58:36.222Z,1032.53
2023-02-08T17:00:39.024Z,1032.45
2023-02-08T17:02:35.168Z,1032.45
2023-02-08T17:04:38.559Z,1032.51
2023-02-08T17:06:35.430Z,1032.51
2023-02-08T17:08:35.874Z,1032.33
2023-02-08T17:10:35.576Z,1032.33
2023-02-08T17:13:03.858Z,1032.32
2023-02-08T17:14:35.573Z,1032.32
2023-02-08T17:16:36.231Z,1032.23
2023-02-08T17:18:35.498Z,1032.23
2023-02-08T17:20:36.104Z,1032.23
2023-02-08T17:22:35.290Z,1032.23
2023-02-08T17:24:37.207Z,1032.2
2023-02-08T17:26:35.204Z,1032.2
2023-02-08T17:28:35.849Z,1032.27
2023-02-08T17:30:35.685Z,1032.27
2023-02-08T17:32:35.888Z,1032.29
2023-02-08T17:34:35.185Z,1032.29
2023-02-08T17:36:35.746Z,1032.18
2023-02-08T17:38:35.149Z,1032
2023-02-08T17:40:35.657Z,1032
2023-02-08T17:42:35.259Z,1032.09
2023-02-08T17:44:36.034Z,1032.09
2023-02-08T17:46:35.696Z,1032.04
2023-02-08T17:48:36.164Z,1032.04
2023-02-08T17:50:35.595Z,1031.91
2023-02-08T17:52:36.156Z,1031.91
2023-02-08T17:54:37.399Z,1031.95
2023-02-08T17:56:35.835Z,1031.95
2023-02-08T17:58:35.333Z,1031.9
2023-02-08T18:00:38.492Z,1031.9
2023-02-08T18:02:35.940Z,1032.01
2023-02-08T18:04:36.060Z,1032.01
2023-02-08T18:06:35.553Z,1032.08
2023-02-08T18:08:37.363Z,1032.08
2023-02-08T18:10:35.518Z,1032.03
2023-02-08T18:12:35.204Z,1032.03
2023-02-08T18:14:36.911Z,1032.09
2023-02-08T18:16:35.670Z,1032.09
2023-02-08T18:18:35.745Z,1032.14
2023-02-08T18:20:35.310Z,1032.14
2023-02-08T18:22:36.431Z,1032.04
2023-02-08T18:24:35.093Z,1032.04
2023-02-08T18:26:35.530Z,1032.08
2023-02-08T18:28:35.484Z,1032.08
2023-02-08T18:30:35.855Z,1031.96
2023-02-08T18:32:35.620Z,1031.96
2023-02-08T18:34:35.696Z,1032.14
2023-02-08T18:36:35.240Z,1032.14
2023-02-08T18:38:35.653Z,1032.04
2023-02-08T18:40:35.402Z,1032.04
2023-02-08T18:42:36.379Z,1031.92
2023-02-08T18:44:35.439Z,1031.92
2023-02-08T18:46:35.853Z,1031.88
2023-02-08T18:48:35.260Z,1031.88
2023-02-08T18:50:35.774Z,1031.87
2023-02-08T18:52:35.213Z,1031.87
2023-02-08T18:54:35.590Z,1031.75
2023-02-08T18:56:35.870Z,1031.75
2023-02-08T18:58:35.523Z,1031.98
2023-02-08T19:00:41.704Z,1031.98
2023-02-08T19:02:38.013Z,1031.79
2023-02-08T19:04:35.850Z,1031.79
2023-02-08T19:06:35.213Z,1031.95
2023-02-08T19:08:35.780Z,1031.95
2023-02-08T19:10:35.180Z,1032.02
2023-02-08T19:12:35.712Z,1032.02
2023-02-08T19:14:36.030Z,1031.87
2023-02-08T19:16:35.638Z,1031.87
2023-02-08T19:18:35.770Z,1031.93
2023-02-08T19:20:35.389Z,1031.93
2023-02-08T19:22:36.105Z,1031.81
2023-02-08T19:24:37.778Z,1031.81
2023-02-08T19:26:36.020Z,1031.79
2023-02-08T19:28:35.775Z,1031.79
2023-02-08T19:30:36.177Z,1031.79
2023-02-08T19:32:35.780Z,1031.79
2023-02-08T19:34:35.981Z,1031.76
2023-02-08T19:36:35.529Z,1031.76
2023-02-08T19:38:35.946Z,1031.76
2023-02-08T19:40:35.637Z,1031.76
2023-02-08T19:42:35.911Z,1031.63
2023-02-08T19:44:35.335Z,1031.63
2023-02-08T19:46:35.872Z,1031.64
2023-02-08T19:48:35.185Z,1031.64
2023-02-08T19:50:35.845Z,1031.69
2023-02-08T19:52:35.400Z,1031.69
2023-02-08T19:54:35.878Z,1031.59
2023-02-08T19:56:35.327Z,1031.59
2023-02-08T19:58:35.872Z,1031.59
2023-02-08T20:00:51.699Z,1031.59
2023-02-08T20:02:35.421Z,1031.64
2023-02-08T20:04:35.747Z,1031.64
2023-02-08T20:06:35.358Z,1031.61
2023-02-08T20:08:38.430Z,1031.61
2023-02-08T20:10:35.415Z,1031.67
2023-02-08T20:12:36.069Z,1031.67
2023-02-08T20:14:35.519Z,1031.69
2023-02-08T20:16:35.224Z,1031.69
2023-02-08T20:18:35.637Z,1031.64
2023-02-08T20:20:35.192Z,1031.64
2023-02-08T20:22:35.817Z,1031.64
2023-02-08T20:24:35.387Z,1031.64
2023-02-08T20:26:35.832Z,1031.59
2023-02-08T20:28:35.713Z,1031.59
2023-02-08T20:30:35.974Z,1031.59
2023-02-08T20:32:35.638Z,1031.59
2023-02-08T20:34:35.949Z,1031.54
2023-02-08T20:36:35.190Z,1031.54
2023-02-08T20:38:35.484Z,1031.66
2023-02-08T20:40:35.988Z,1031.66
2023-02-08T20:42:35.535Z,1031.68
2023-02-08T20:44:35.901Z,1031.68
2023-02-08T20:46:35.594Z,1031.63
2023-02-08T20:48:35.949Z,1031.63
2023-02-08T20:50:49.504Z,1031.61
2023-02-08T20:52:36.017Z,1031.61
2023-02-08T20:54:35.444Z,1031.69
2023-02-08T20:56:36.027Z,1031.69
2023-02-08T20:58:35.408Z,1031.65
2023-02-08T21:00:53.406Z,1031.59
2023-02-08T21:02:35.420Z,1031.59
2023-02-08T21:04:35.849Z,1031.58
2023-02-08T21:06:35.215Z,1031.58
2023-02-08T21:08:35.607Z,1031.41
2023-02-08T21:10:35.414Z,1031.41
2023-02-08T21:12:36.059Z,1031.45
2023-02-08T21:14:35.631Z,1031.45
2023-02-08T21:16:35.218Z,1031.41
2023-02-08T21:18:35.697Z,1031.41
2023-02-08T21:20:36.103Z,1031.46
2023-02-08T21:22:35.531Z,1031.46
2023-02-08T21:24:35.125Z,1031.39
2023-02-08T21:26:35.534Z,1031.39
2023-02-08T21:28:36.047Z,1031.31
2023-02-08T21:30:35.836Z,1031.31
2023-02-08T21:32:35.453Z,1031.22
2023-02-08T21:34:35.617Z,1031.22
2023-02-08T21:36:36.107Z,1031.28
2023-02-08T21:38:35.459Z,1031.28
2023-02-08T21:40:35.993Z,1031.11
2023-02-08T21:42:35.458Z,1031.11
2023-02-08T21:44:36.055Z,1031.19
2023-02-08T21:46:35.709Z,1031.19
2023-02-08T21:48:35.997Z,1031.22
2023-02-08T21:50:35.641Z,1031.22
2023-02-08T21:52:36.012Z,1031.02
2023-02-08T21:54:35.395Z,1031.02
2023-02-08T21:56:36.147Z,1031.07
2023-02-08T21:58:35.476Z,1031.07
2023-02-08T22:00:38.472Z,1030.96
2023-02-08T22:02:35.425Z,1030.96
2023-02-08T22:04:36.011Z,1030.99
2023-02-08T22:06:35.396Z,1030.99
2023-02-08T22:08:35.637Z,1030.78
2023-02-08T22:10:35.312Z,1030.78
2023-02-08T22:12:35.875Z,1030.87
2023-02-08T22:14:35.241Z,1030.87
2023-02-08T22:16:36.084Z,1030.8
2023-02-08T22:18:35.295Z,1030.8
2023-02-08T22:20:35.677Z,1030.84
2023-02-08T22:22:35.081Z,1030.84
2023-02-08T22:24:35.646Z,1030.75
2023-02-08T22:26:35.184Z,1030.75
2023-02-08T22:28:37.416Z,1030.66
2023-02-08T22:30:37.152Z,1030.66
2023-02-08T22:32:36.201Z,1030.6
2023-02-08T22:34:35.614Z,1030.6
2023-02-08T22:36:35.210Z,1030.53
2023-02-08T22:38:35.785Z,1030.53
2023-02-08T22:40:35.627Z,1030.54
2023-02-08T22:42:35.951Z,1030.54
2023-02-08T22:44:35.330Z,1030.54
2023-02-08T22:46:36.094Z,1030.54
2023-02-08T22:48:35.117Z,1030.51
2023-02-08T22:50:35.793Z,1030.51
2023-02-08T22:52:35.224Z,1030.48
2023-02-08T22:54:35.761Z,1030.48
2023-02-08T22:56:36.003Z,1030.47
2023-02-08T22:58:35.449Z,1030.47
2023-02-08T23:00:44.923Z,1030.48
2023-02-08T23:02:35.540Z,1030.48
2023-02-08T23:04:35.719Z,1030.46
2023-02-08T23:06:35.370Z,1030.46
2023-02-08T23:08:36.019Z,1030.41
2023-02-08T23:10:35.380Z,1030.41
2023-02-08T23:12:36.035Z,1030.39
2023-02-08T23:14:35.515Z,1030.39
2023-02-08T23:16:36.539Z,1030.44
2023-02-08T23:18:35.596Z,1030.44
2023-02-08T23:20:35.283Z,1030.34
2023-02-08T23:22:35.655Z,1030.34
2023-02-08T23:24:35.066Z,1030.36
2023-02-08T23:26:35.557Z,1030.36
2023-02-08T23:28:36.363Z,1030.39
2023-02-08T23:30:35.483Z,1030.39
2023-02-08T23:32:36.113Z,1030.3
2023-02-08T23:34:35.538Z,1030.3
2023-02-08T23:36:36.036Z,1030.34
2023-02-08T23:38:35.363Z,1030.34
2023-02-08T23:40:35.804Z,1030.25
2023-02-08T23:42:37.426Z,1030.25
2023-02-08T23:44:35.966Z,1030.35
2023-02-08T23:46:35.465Z,1030.35
2023-02-08T23:48:37.856Z,1030.27
2023-02-08T23:50:35.536Z,1030.27
2023-02-08T23:52:35.922Z,1030.31
2023-02-08T23:54:35.308Z,1030.31
2023-02-08T23:56:35.802Z,1030.22
2023-02-08T23:58:35.359Z,1030.22
